Columbia — WYR2092 — position and weather

sailwx.info

Track history (hours):
 
Tides and Currents Weather Stations Pressure Air Temp Water Temp Dewpoint Dewpoint Depression Visibility Wind Speed Wind Dir Waves Ship Positions

Columbia

Owner: ALASKA, STATE OF, ANCHORAGE, AK. More information available from US FCC via Universal Licensing System and Coast Guard Vessel Documentation Center.

Last reported at 2016-Aug-23 13:00 UTC. Time now 2016-Aug-25 02:46 UTC.
Position N 57°42' W 134°48'.

Type: Ship. MMSI: 367144000.

Wind from 160 at 20 knots

Waves 1.0 meters (3 feet), 2 second period

Barometer 1019.7 mb
Air temperature 13.3 ° C
Visibility: greater than 5.4 NM

Date/timePositionNaut miles runAvg speedWind from/ knotsBaromVisibWave heightAir tempDewpointWater temp
2016-Aug-23 13:00N 57°42' W 134°48'152 3.5 160 / 201019.7 5.4 1.013.3
2016-Aug-21 18:00N 55°36' W 132°12'28912.3 350 / 181008.710.8 18.8 6.919.4
2016-Aug-20 18:33N 51°32' W 127°52'1615.5
2016-Aug-20 17:33N 51°17' W 127°52'1514.8
2016-Aug-20 16:33N 51°04' W 127°41'1616.4
2016-Aug-20 15:33N 50°53' W 127°21'1716.4
2016-Aug-20 14:33N 50°44' W 126°59'5115.6
2016-Aug-20 11:17N 50°23' W 125°47'1314.8
2016-Aug-20 10:26N 50°20' W 125°27'1315.2
2016-Aug-20 09:33N 50°08' W 125°21'1211.5
2016-Aug-20 08:33N 49°58' W 125°10'1918.9
2016-Aug-20 07:34N 49°45' W 124°50'1918.8
2016-Aug-20 06:34N 49°32' W 124°28'1817.8
2016-Aug-20 05:34N 49°24' W 124°05'1818.2
2016-Aug-20 04:34N 49°15' W 123°40'1918.7
2016-Aug-20 03:33N 49°03' W 123°19'1818.4
2016-Aug-20 02:34N 48°51' W 122°58'1919.4
2016-Aug-20 01:34N 48°38' W 122°35'6 1.4
2016-Aug-19 21:22N 48°43' W 122°31'0 0.0
2016-Aug-19 18:28N 48°43' W 122°31'0 0.0
2016-Aug-19 16:26N 48°43' W 122°31'0 0.1
2016-Aug-19 14:33N 48°43' W 122°31'10 9.8
2016-Aug-19 13:33N 48°43' W 122°46'1918.7
2016-Aug-19 12:33N 48°55' W 123°08'1514.9
2016-Aug-19 11:33N 49°03' W 123°27'6 5.9
2016-Aug-19 10:34N 49°08' W 123°30'1312.9
2016-Aug-19 09:34N 49°18' W 123°44'1211.9
2016-Aug-19 08:34N 49°23' W 124°00'1312.5
2016-Aug-19 07:34N 49°26' W 124°19'1313.2
2016-Aug-19 06:33N 49°35' W 124°34'1313.2
2016-Aug-19 05:33N 49°44' W 124°48'1312.8
2016-Aug-19 04:33N 49°53' W 125°02'1111.3
2016-Aug-19 03:34N 50°02' W 125°13'10 9.8
2016-Aug-19 02:33N 50°10' W 125°22'5813.9
2016-Aug-18 22:23N 50°36' W 126°43'1518.4
2016-Aug-18 21:34N 50°46' W 127°02'1817.7
2016-Aug-18 20:34N 50°55' W 127°25'1717.2
2016-Aug-18 19:33N 51°07' W 127°45'1815.9
2016-Aug-18 18:26N 51°24' W 127°53'7 4.7
2016-Aug-18 17:00N 51°30' W 127°48'21316.4 010 / 181020.410.8 0.516.7
2016-Aug-18 04:00N 54°36' W 130°42'217 6.0 290 / 161025.610.8 0.516.7
2016-Aug-16 16:00N 57°24' W 134°48'165 3.7 170 / 101024.110.8 12.8
2016-Aug-14 19:00N 55°24' W 131°24'14910.0 1027.0 5.4 17.2
2016-Aug-14 04:00N 53°18' W 129°06'11413.0 160 / 61018.0 5.4 16.1
2016-Aug-13 19:10N 51°33' W 127°52'1016.4
2016-Aug-13 18:33N 51°23' W 127°51'1515.4
2016-Aug-13 17:33N 51°08' W 127°47'2 3.3
2016-Aug-13 17:00N 51°06' W 127°48'1635.8 270 / 151019.2 1.1 1.015.0
2016-Aug-13 16:34N 50°57' W 127°28'1616.2
2016-Aug-13 15:33N 50°48' W 127°06'  
Track history (hours):
 
Tides and Currents Weather Stations Pressure Air Temp Water Temp Dewpoint Dewpoint Depression Visibility Wind Speed Wind Dir Waves Ship Positions

Columbia

Owner: ALASKA, STATE OF, ANCHORAGE, AK. More information available from US FCC via Universal Licensing System and Coast Guard Vessel Documentation Center.

Last reported at 2016-Aug-23 13:00 UTC. Time now 2016-Aug-25 02:46 UTC.
Position N 57°42' W 134°48'.

Type: Ship. MMSI: 367144000.

Wind from 160 at 20 knots

Waves 1.0 meters (3 feet), 2 second period

Barometer 1019.7 mb
Air temperature 13.3 ° C
Visibility: greater than 5.4 NM

Date/timePositionNaut miles runAvg speedWind from/ knotsBaromVisibWave heightAir tempDewpointWater temp
2016-Aug-23 13:00N 57°42' W 134°48'152 3.5 160 / 201019.7 5.4 1.013.3
2016-Aug-21 18:00N 55°36' W 132°12'28912.3 350 / 181008.710.8 18.8 6.919.4
2016-Aug-20 18:33N 51°32' W 127°52'1615.5
2016-Aug-20 17:33N 51°17' W 127°52'1514.8
2016-Aug-20 16:33N 51°04' W 127°41'1616.4
2016-Aug-20 15:33N 50°53' W 127°21'1716.4
2016-Aug-20 14:33N 50°44' W 126°59'5115.6
2016-Aug-20 11:17N 50°23' W 125°47'1314.8
2016-Aug-20 10:26N 50°20' W 125°27'1315.2
2016-Aug-20 09:33N 50°08' W 125°21'1211.5
2016-Aug-20 08:33N 49°58' W 125°10'1918.9
2016-Aug-20 07:34N 49°45' W 124°50'1918.8
2016-Aug-20 06:34N 49°32' W 124°28'1817.8
2016-Aug-20 05:34N 49°24' W 124°05'1818.2
2016-Aug-20 04:34N 49°15' W 123°40'1918.7
2016-Aug-20 03:33N 49°03' W 123°19'1818.4
2016-Aug-20 02:34N 48°51' W 122°58'1919.4
2016-Aug-20 01:34N 48°38' W 122°35'6 1.4
2016-Aug-19 21:22N 48°43' W 122°31'0 0.0
2016-Aug-19 18:28N 48°43' W 122°31'0 0.0
2016-Aug-19 16:26N 48°43' W 122°31'0 0.1
2016-Aug-19 14:33N 48°43' W 122°31'10 9.8
2016-Aug-19 13:33N 48°43' W 122°46'1918.7
2016-Aug-19 12:33N 48°55' W 123°08'1514.9
2016-Aug-19 11:33N 49°03' W 123°27'6 5.9
2016-Aug-19 10:34N 49°08' W 123°30'1312.9
2016-Aug-19 09:34N 49°18' W 123°44'1211.9
2016-Aug-19 08:34N 49°23' W 124°00'1312.5
2016-Aug-19 07:34N 49°26' W 124°19'1313.2
2016-Aug-19 06:33N 49°35' W 124°34'1313.2
2016-Aug-19 05:33N 49°44' W 124°48'1312.8
2016-Aug-19 04:33N 49°53' W 125°02'1111.3
2016-Aug-19 03:34N 50°02' W 125°13'10 9.8
2016-Aug-19 02:33N 50°10' W 125°22'5813.9
2016-Aug-18 22:23N 50°36' W 126°43'1518.4
2016-Aug-18 21:34N 50°46' W 127°02'1817.7
2016-Aug-18 20:34N 50°55' W 127°25'1717.2
2016-Aug-18 19:33N 51°07' W 127°45'1815.9
2016-Aug-18 18:26N 51°24' W 127°53'7 4.7
2016-Aug-18 17:00N 51°30' W 127°48'21316.4 010 / 181020.410.8 0.516.7
2016-Aug-18 04:00N 54°36' W 130°42'217 6.0 290 / 161025.610.8 0.516.7
2016-Aug-16 16:00N 57°24' W 134°48'165 3.7 170 / 101024.110.8 12.8
2016-Aug-14 19:00N 55°24' W 131°24'14910.0 1027.0 5.4 17.2
2016-Aug-14 04:00N 53°18' W 129°06'11413.0 160 / 61018.0 5.4 16.1
2016-Aug-13 19:10N 51°33' W 127°52'1016.4
2016-Aug-13 18:33N 51°23' W 127°51'1515.4
2016-Aug-13 17:33N 51°08' W 127°47'2 3.3
2016-Aug-13 17:00N 51°06' W 127°48'1635.8 270 / 151019.2 1.1 1.015.0
2016-Aug-13 16:34N 50°57' W 127°28'1616.2
2016-Aug-13 15:33N 50°48' W 127°06'  

Dump ship's entire track history